Time;durP1;ratioP1;P1;durP2;ratioP2;P2;SDS_P1;SDS_P2;PMS_P1;PMS_P2;Temp;Humidity;BMP_temperature;BMP_pressure;BME280_temperature;BME280_humidity;BME280_pressure;Samples;Min_cycle;Max_cycle;Signal;HPM_P1;HPM_P2
2021/01/19 00:01:08;;;;;;;;;;;5.80;99.90;;;;;;5104840;28;19908;-80
2021/01/19 00:03:33;;;;;;;;;;;5.70;99.90;;;;;;5116841;27;19908;-80
2021/01/19 00:05:59;;;;;;;;;;;5.70;99.90;;;;;;5097909;28;19992;-80
2021/01/19 00:08:24;;;;;;;;;;;5.70;99.90;;;;;;5118629;27;19908;-80
2021/01/19 00:10:50;;;;;;;;;;;5.70;99.90;;;;;;5117328;27;19973;-80
2021/01/19 00:13:19;;;;;;;;;;;5.70;99.90;;;;;;5117237;27;19955;-80
2021/01/19 00:15:48;;;;;;;;;;;5.60;99.90;;;;;;5097910;28;20236;-80
2021/01/19 00:18:14;;;;;;;;;;;5.60;99.90;;;;;;5100057;27;19912;-80
2021/01/19 00:20:39;;;;;;;;;;;5.60;99.90;;;;;;5099925;28;19960;-80
2021/01/19 00:23:05;;;;;;;;;;;5.60;99.90;;;;;;5099510;28;19908;-80
2021/01/19 00:25:30;;;;;;;;;;;5.60;99.90;;;;;;5097459;28;20358;-80
2021/01/19 00:27:56;;;;;;;;;;;5.60;99.90;;;;;;5111770;28;19959;-80
2021/01/19 00:30:21;;;;;;;;;;;5.60;99.90;;;;;;5117222;27;19908;-80
2021/01/19 00:32:47;;;;;;;;;;;5.60;99.90;;;;;;5115364;27;19914;-80
2021/01/19 00:35:12;;;;;;;;;;;5.50;99.90;;;;;;5099826;27;19915;-80
2021/01/19 00:37:37;;;;;;;;;;;5.50;99.90;;;;;;5099576;28;19908;-80
2021/01/19 00:40:03;;;;;;;;;;;5.50;99.90;;;;;;5097611;27;19969;-80
2021/01/19 00:42:29;;;;;;;;;;;5.50;99.90;;;;;;5117867;27;19908;-80
2021/01/19 00:44:54;;;;;;;;;;;5.60;99.90;;;;;;5098046;28;19908;-80
2021/01/19 00:47:19;;;;;;;;;;;5.60;99.90;;;;;;5116553;27;19912;-80
2021/01/19 00:49:45;;;;;;;;;;;5.60;99.90;;;;;;5097361;28;19915;-80
2021/01/19 00:52:10;;;;;;;;;;;5.50;99.90;;;;;;5102175;27;19931;-80
2021/01/19 00:54:36;;;;;;;;;;;5.50;99.90;;;;;;5107789;28;19911;-80
2021/01/19 00:57:02;;;;;;;;;;;5.50;99.90;;;;;;5099184;27;20394;-80
2021/01/19 00:59:27;;;;;;;;;;;5.50;99.90;;;;;;5117705;27;19920;-80
2021/01/19 01:01:53;;;;;;;;;;;5.50;99.90;;;;;;5116007;27;19912;-80
2021/01/19 01:04:18;;;;;;;;;;;5.50;99.90;;;;;;5116380;27;19915;-80
2021/01/19 01:06:43;;;;;;;;;;;5.50;99.90;;;;;;5115196;27;19908;-80
2021/01/19 01:09:09;;;;;;;;;;;5.50;99.90;;;;;;5112068;27;20152;-80
2021/01/19 01:11:35;;;;;;;;;;;5.50;99.90;;;;;;5117578;27;19915;-80
2021/01/19 01:14:01;;;;;;;;;;;5.50;99.90;;;;;;5115655;27;19915;-80
2021/01/19 01:16:26;;;;;;;;;;;5.60;99.90;;;;;;5115086;27;19908;-80
2021/01/19 01:18:52;;;;;;;;;;;5.50;99.90;;;;;;5099090;28;20341;-80
2021/01/19 01:21:17;;;;;;;;;;;5.50;99.90;;;;;;5098824;27;19908;-80
2021/01/19 01:23:43;;;;;;;;;;;5.50;99.90;;;;;;5104080;28;19908;-80
2021/01/19 01:26:08;;;;;;;;;;;5.50;99.90;;;;;;5116085;27;20313;-80
2021/01/19 01:28:34;;;;;;;;;;;5.50;99.90;;;;;;5116573;27;19908;-80
2021/01/19 01:30:59;;;;;;;;;;;5.50;99.90;;;;;;5096996;28;19951;-80
2021/01/19 01:33:24;;;;;;;;;;;5.50;99.90;;;;;;5114806;28;19934;-80
2021/01/19 01:35:50;;;;;;;;;;;5.50;99.90;;;;;;5096203;28;19912;-80
2021/01/19 01:38:16;;;;;;;;;;;5.50;99.90;;;;;;5116767;27;20414;-80
2021/01/19 01:40:41;;;;;;;;;;;5.50;99.90;;;;;;5107439;28;19956;-80
2021/01/19 01:43:11;;;;;;;;;;;5.50;99.90;;;;;;5097014;28;19907;-79
2021/01/19 01:45:37;;;;;;;;;;;5.50;99.90;;;;;;5095848;28;19908;-80
2021/01/19 01:48:02;;;;;;;;;;;5.50;99.90;;;;;;5096520;28;20374;-80
2021/01/19 01:50:28;;;;;;;;;;;5.50;99.90;;;;;;5095976;27;20333;-80
2021/01/19 01:52:54;;;;;;;;;;;5.40;99.90;;;;;;5101111;28;20427;-80
2021/01/19 01:55:19;;;;;;;;;;;5.50;99.90;;;;;;5098203;27;19908;-79
2021/01/19 01:57:46;;;;;;;;;;;5.40;99.90;;;;;;5103140;28;20317;-80
2021/01/19 02:00:12;;;;;;;;;;;5.40;99.90;;;;;;5096935;28;20394;-80
2021/01/19 02:02:48;;;;;;;;;;;5.40;99.90;;;;;;5096359;28;19914;-80
2021/01/19 02:05:13;;;;;;;;;;;5.40;99.90;;;;;;5096149;28;19907;-80
2021/01/19 02:07:57;;;;;;;;;;;5.40;99.90;;;;;;5095537;28;19908;-80
2021/01/19 02:10:28;;;;;;;;;;;5.40;99.90;;;;;;5109560;28;19943;-80
2021/01/19 02:13:00;;;;;;;;;;;5.40;99.90;;;;;;5115329;28;19908;-80
2021/01/19 02:15:42;;;;;;;;;;;5.40;99.90;;;;;;5114237;28;19922;-80
2021/01/19 02:18:16;;;;;;;;;;;5.40;99.90;;;;;;5097584;27;20259;-80
2021/01/19 02:20:57;;;;;;;;;;;5.40;99.90;;;;;;5097962;28;20323;-80
2021/01/19 02:23:26;;;;;;;;;;;5.40;99.90;;;;;;5117506;27;19932;-80
2021/01/19 02:25:59;;;;;;;;;;;5.40;99.90;;;;;;5096753;28;19907;-80
2021/01/19 02:28:29;;;;;;;;;;;5.40;99.90;;;;;;5097425;27;19954;-80
2021/01/19 02:31:13;;;;;;;;;;;5.40;99.90;;;;;;5095988;28;19912;-80
2021/01/19 02:33:57;;;;;;;;;;;5.40;99.90;;;;;;5098318;28;19908;-80
2021/01/19 02:36:30;;;;;;;;;;;5.40;99.90;;;;;;5097707;28;19908;-80
2021/01/19 02:39:00;;;;;;;;;;;5.40;99.90;;;;;;5099469;28;19908;-80
2021/01/19 02:41:27;;;;;;;;;;;5.40;99.90;;;;;;5096947;28;20392;-80
2021/01/19 02:43:57;;;;;;;;;;;5.40;99.90;;;;;;5097615;27;19916;-79
2021/01/19 02:46:24;;;;;;;;;;;5.40;99.90;;;;;;5095825;28;19912;-80
2021/01/19 02:48:50;;;;;;;;;;;5.40;99.90;;;;;;5095915;28;19915;-80
2021/01/19 02:51:15;;;;;;;;;;;5.40;99.90;;;;;;5113320;28;19930;-80
2021/01/19 02:53:41;;;;;;;;;;;5.40;99.90;;;;;;5116512;27;20022;-79
2021/01/19 02:56:09;;;;;;;;;;;5.30;99.90;;;;;;5102533;28;19908;-80
2021/01/19 02:59:01;;;;;;;;;;;5.30;99.90;;;;;;5096008;28;19914;-80
2021/01/19 03:01:31;;;;;;;;;;;5.30;99.90;;;;;;5113879;28;19949;-80
2021/01/19 03:03:57;;;;;;;;;;;5.30;99.90;;;;;;5118204;28;19908;-80
2021/01/19 03:06:27;;;;;;;;;;;5.30;99.90;;;;;;5095148;28;19914;-80
2021/01/19 03:08:53;;;;;;;;;;;5.30;99.90;;;;;;5094528;28;19916;-80
2021/01/19 03:11:19;;;;;;;;;;;5.20;99.90;;;;;;5115499;28;19919;-80
2021/01/19 03:13:45;;;;;;;;;;;5.20;99.90;;;;;;5113626;28;19910;-80
2021/01/19 03:16:12;;;;;;;;;;;5.20;99.90;;;;;;5094637;28;19907;-80
2021/01/19 03:18:39;;;;;;;;;;;5.20;99.90;;;;;;5094885;28;19908;-80
2021/01/19 03:21:05;;;;;;;;;;;5.20;99.90;;;;;;5115488;28;19942;-80
2021/01/19 03:23:31;;;;;;;;;;;5.20;99.90;;;;;;5098637;28;19912;-80
2021/01/19 03:25:56;;;;;;;;;;;5.20;99.90;;;;;;5114414;28;20379;-80
2021/01/19 03:28:22;;;;;;;;;;;5.10;99.90;;;;;;5096746;28;19908;-80
2021/01/19 03:30:47;;;;;;;;;;;5.00;99.90;;;;;;5113678;28;20371;-81
2021/01/19 03:33:13;;;;;;;;;;;4.90;99.90;;;;;;5094565;28;19908;-81
2021/01/19 03:35:39;;;;;;;;;;;4.80;99.90;;;;;;5115636;28;19908;-82
2021/01/19 03:38:07;;;;;;;;;;;4.70;99.90;;;;;;5096895;28;20329;-82
2021/01/19 03:40:33;;;;;;;;;;;4.60;99.90;;;;;;5098372;28;19920;-82
2021/01/19 03:42:59;;;;;;;;;;;4.60;99.90;;;;;;5095865;28;19981;-82
2021/01/19 03:45:26;;;;;;;;;;;4.50;99.90;;;;;;5115280;28;19963;-82
2021/01/19 03:47:51;;;;;;;;;;;4.50;99.90;;;;;;5095384;28;19930;-82
2021/01/19 03:50:16;;;;;;;;;;;4.50;99.90;;;;;;5113272;28;20287;-82
2021/01/19 03:52:42;;;;;;;;;;;4.40;99.90;;;;;;5099888;28;20275;-82
2021/01/19 03:55:07;;;;;;;;;;;4.40;99.90;;;;;;5115615;28;19911;-83
2021/01/19 03:57:33;;;;;;;;;;;4.40;99.90;;;;;;5098113;28;19964;-82
2021/01/19 03:59:58;;;;;;;;;;;4.40;99.90;;;;;;5113790;28;19991;-83
2021/01/19 04:02:24;;;;;;;;;;;4.40;99.90;;;;;;5096564;28;19962;-83
2021/01/19 04:04:49;;;;;;;;;;;4.40;99.90;;;;;;5095046;28;19908;-83
2021/01/19 04:07:15;;;;;;;;;;;4.40;99.90;;;;;;5114262;28;19915;-83
2021/01/19 04:09:40;;;;;;;;;;;4.30;99.90;;;;;;5099637;27;19931;-82
2021/01/19 04:12:05;;;;;;;;;;;4.30;99.90;;;;;;5099114;28;19907;-83
2021/01/19 04:14:31;;;;;;;;;;;4.30;99.90;;;;;;5117289;27;19908;-84
2021/01/19 04:16:56;;;;;;;;;;;4.30;99.90;;;;;;5100688;28;19957;-83
2021/01/19 04:19:22;;;;;;;;;;;4.30;99.90;;;;;;5116255;27;19911;-83
2021/01/19 04:21:47;;;;;;;;;;;4.30;99.90;;;;;;5102663;27;20363;-82
2021/01/19 04:24:13;;;;;;;;;;;4.30;99.90;;;;;;5099496;28;19915;-83
2021/01/19 04:26:38;;;;;;;;;;;4.30;99.90;;;;;;5098985;27;19912;-84
2021/01/19 04:29:04;;;;;;;;;;;4.30;99.90;;;;;;5104792;28;19998;-84
2021/01/19 04:31:29;;;;;;;;;;;4.30;99.90;;;;;;5098455;28;19999;-83
2021/01/19 04:33:54;;;;;;;;;;;4.30;99.90;;;;;;5116398;27;20320;-84
2021/01/19 04:36:20;;;;;;;;;;;4.30;99.90;;;;;;5097498;28;19911;-83
2021/01/19 04:38:45;;;;;;;;;;;4.30;99.90;;;;;;5101893;27;19914;-83
2021/01/19 04:41:11;;;;;;;;;;;4.30;99.90;;;;;;5099338;28;19912;-83
2021/01/19 04:43:36;;;;;;;;;;;4.30;99.90;;;;;;5116915;27;19923;-84
2021/01/19 04:46:03;;;;;;;;;;;4.30;99.90;;;;;;5116797;27;19908;-83
2021/01/19 04:48:29;;;;;;;;;;;4.30;99.90;;;;;;5116235;27;19907;-83
2021/01/19 04:50:55;;;;;;;;;;;4.30;99.90;;;;;;5115702;27;19908;-81
2021/01/19 04:53:23;;;;;;;;;;;4.40;99.90;;;;;;5115215;27;19911;-87
2021/01/19 04:55:54;;;;;;;;;;;4.30;99.90;;;;;;5120190;27;19907;-86
2021/01/19 04:58:23;;;;;;;;;;;4.40;99.90;;;;;;5097473;28;20347;-85
2021/01/19 05:01:02;;;;;;;;;;;4.40;99.90;;;;;;5099890;27;19926;-85
2021/01/19 05:03:48;;;;;;;;;;;4.40;99.90;;;;;;5112549;28;20408;-86
2021/01/19 05:06:15;;;;;;;;;;;4.40;99.90;;;;;;5104445;27;20411;-86
2021/01/19 05:08:43;;;;;;;;;;;4.40;99.90;;;;;;5114920;28;19912;-86
2021/01/19 05:11:19;;;;;;;;;;;4.40;99.90;;;;;;5115878;27;19914;-86
2021/01/19 05:13:53;;;;;;;;;;;4.40;99.90;;;;;;5096844;28;19908;-86
2021/01/19 05:16:23;;;;;;;;;;;4.40;99.90;;;;;;5116099;27;20342;-87
2021/01/19 05:18:48;;;;;;;;;;;4.40;99.90;;;;;;5099939;28;19907;-86
2021/01/19 05:21:14;;;;;;;;;;;4.40;99.90;;;;;;5117574;27;19933;-87
2021/01/19 05:23:40;;;;;;;;;;;4.40;99.90;;;;;;5115953;27;19912;-86
2021/01/19 05:26:06;;;;;;;;;;;4.40;99.90;;;;;;5098403;28;20007;-85
2021/01/19 05:28:38;;;;;;;;;;;4.40;99.90;;;;;;5099048;27;19908;-86
2021/01/19 05:31:23;;;;;;;;;;;4.40;99.90;;;;;;5103325;28;19908;-85
2021/01/19 05:33:58;;;;;;;;;;;4.50;99.90;;;;;;5096469;28;19908;-84
2021/01/19 05:36:24;;;;;;;;;;;4.50;99.90;;;;;;5097069;28;19950;-85
2021/01/19 05:38:54;;;;;;;;;;;4.50;99.90;;;;;;5101947;27;19915;-86
2021/01/19 05:41:30;;;;;;;;;;;4.50;99.90;;;;;;5098469;28;20363;-85
2021/01/19 05:43:56;;;;;;;;;;;4.50;99.90;;;;;;5106451;28;20363;-85
2021/01/19 05:46:24;;;;;;;;;;;4.60;99.90;;;;;;5114400;28;19990;-86
2021/01/19 05:48:52;;;;;;;;;;;4.50;99.90;;;;;;5098686;27;19916;-85
2021/01/19 05:51:21;;;;;;;;;;;4.60;99.90;;;;;;5096329;28;19908;-86
2021/01/19 05:53:50;;;;;;;;;;;4.60;99.90;;;;;;5097894;27;19907;-86
2021/01/19 05:56:20;;;;;;;;;;;4.60;99.90;;;;;;5105159;28;19915;-85
2021/01/19 05:58:47;;;;;;;;;;;4.60;99.90;;;;;;5099558;28;19916;-86
2021/01/19 06:01:18;;;;;;;;;;;4.60;99.90;;;;;;5116750;27;19919;-87
2021/01/19 06:03:50;;;;;;;;;;;4.70;99.90;;;;;;5096885;28;19915;-85
2021/01/19 06:06:16;;;;;;;;;;;4.70;99.90;;;;;;5114561;27;19907;-85
2021/01/19 06:08:42;;;;;;;;;;;4.70;99.90;;;;;;5113920;28;19908;-85
2021/01/19 06:11:08;;;;;;;;;;;4.70;99.90;;;;;;5116050;27;19908;-85
2021/01/19 06:13:33;;;;;;;;;;;4.70;99.90;;;;;;5114798;27;20148;-85
2021/01/19 06:16:07;;;;;;;;;;;4.70;99.90;;;;;;5096624;28;19908;-86
2021/01/19 06:18:36;;;;;;;;;;;4.80;99.90;;;;;;5113645;27;19907;-86
2021/01/19 06:21:01;;;;;;;;;;;4.80;99.90;;;;;;5100928;28;19922;-85
2021/01/19 06:23:27;;;;;;;;;;;4.80;99.90;;;;;;5113837;28;19907;-86
2021/01/19 06:26:02;;;;;;;;;;;4.80;99.90;;;;;;5119178;27;19915;-87
2021/01/19 06:28:28;;;;;;;;;;;4.80;99.90;;;;;;5097214;28;20002;-88
2021/01/19 06:30:53;;;;;;;;;;;4.80;99.90;;;;;;5099278;28;19947;-87
2021/01/19 06:33:22;;;;;;;;;;;4.90;99.90;;;;;;5101368;28;19915;-86
2021/01/19 06:35:53;;;;;;;;;;;4.90;99.90;;;;;;5106520;28;19908;-86
2021/01/19 06:38:19;;;;;;;;;;;4.90;99.90;;;;;;5095549;28;20388;-85
2021/01/19 06:40:47;;;;;;;;;;;4.90;99.90;;;;;;5098860;28;20382;-87
2021/01/19 06:43:13;;;;;;;;;;;4.90;99.90;;;;;;5099382;28;20327;-86
2021/01/19 06:45:41;;;;;;;;;;;4.90;99.90;;;;;;5114143;28;20306;-87
2021/01/19 06:48:06;;;;;;;;;;;4.90;99.90;;;;;;5094988;28;19914;-87
2021/01/19 06:50:36;;;;;;;;;;;5.00;99.90;;;;;;5095629;28;20003;-88
2021/01/19 06:53:21;;;;;;;;;;;5.00;99.90;;;;;;5095311;28;19907;-87
2021/01/19 06:56:16;;;;;;;;;;;5.00;99.90;;;;;;5096105;28;19908;-88
2021/01/19 06:58:50;;;;;;;;;;;5.00;99.90;;;;;;5096552;28;19912;-88
2021/01/19 07:01:19;;;;;;;;;;;5.10;99.90;;;;;;5095965;28;19911;-88
2021/01/19 07:03:45;;;;;;;;;;;5.10;99.90;;;;;;5114306;28;19908;-88
2021/01/19 07:06:11;;;;;;;;;;;5.10;99.90;;;;;;5096346;28;19939;-87
2021/01/19 07:08:55;;;;;;;;;;;5.10;99.90;;;;;;5095719;28;20350;-87
2021/01/19 07:11:40;;;;;;;;;;;5.10;99.90;;;;;;5095689;28;19912;-87
2021/01/19 07:14:12;;;;;;;;;;;5.20;99.90;;;;;;5096031;28;19908;-87
2021/01/19 07:16:50;;;;;;;;;;;5.20;99.90;;;;;;5096045;28;19931;-87
2021/01/19 07:19:16;;;;;;;;;;;5.20;99.90;;;;;;5113026;28;19931;-88
2021/01/19 07:21:42;;;;;;;;;;;5.20;99.90;;;;;;5116393;28;19961;-87
2021/01/19 07:24:15;;;;;;;;;;;5.30;99.90;;;;;;5112662;28;19978;-87
2021/01/19 07:26:41;;;;;;;;;;;5.30;99.90;;;;;;5104911;28;19911;-86
2021/01/19 07:29:07;;;;;;;;;;;5.30;99.90;;;;;;5133744;28;19907;-87
2021/01/19 07:31:33;;;;;;;;;;;5.30;99.90;;;;;;5112461;28;19908;-86
2021/01/19 07:33:58;;;;;;;;;;;5.30;99.90;;;;;;5123274;28;19959;-86
2021/01/19 07:36:25;;;;;;;;;;;5.30;99.90;;;;;;5124624;28;20010;-86
2021/01/19 07:38:50;;;;;;;;;;;5.40;99.90;;;;;;5107445;28;19911;-87
2021/01/19 07:41:29;;;;;;;;;;;5.40;99.90;;;;;;5098353;28;19912;-87
2021/01/19 07:43:54;;;;;;;;;;;5.40;99.90;;;;;;5133855;27;20011;-87
2021/01/19 07:46:24;;;;;;;;;;;5.40;99.90;;;;;;5110212;27;20187;-87
2021/01/19 07:49:03;;;;;;;;;;;5.50;99.90;;;;;;5117337;27;20431;-88
2021/01/19 07:51:45;;;;;;;;;;;5.50;99.90;;;;;;5118405;28;20015;-88
2021/01/19 07:54:12;;;;;;;;;;;5.50;99.90;;;;;;5099611;28;19920;-88
2021/01/19 07:56:37;;;;;;;;;;;5.50;99.90;;;;;;5102446;28;19911;-88
2021/01/19 07:59:13;;;;;;;;;;;5.50;99.90;;;;;;5124845;27;19969;-85
2021/01/19 08:01:39;;;;;;;;;;;5.50;99.90;;;;;;5109771;27;19915;-85
2021/01/19 08:04:12;;;;;;;;;;;5.50;99.90;;;;;;5126046;27;19908;-87
2021/01/19 08:06:38;;;;;;;;;;;5.60;99.90;;;;;;5108204;27;19915;-87
2021/01/19 08:09:10;;;;;;;;;;;5.60;99.90;;;;;;5108027;27;20366;-87
2021/01/19 08:11:36;;;;;;;;;;;5.60;99.90;;;;;;5110801;27;19907;-85
2021/01/19 08:14:01;;;;;;;;;;;5.60;99.90;;;;;;5105879;28;20189;-85
2021/01/19 08:16:28;;;;;;;;;;;5.60;99.90;;;;;;5117159;28;19911;-86
2021/01/19 08:19:13;;;;;;;;;;;5.70;99.90;;;;;;5098775;28;19908;-85
2021/01/19 08:21:51;;;;;;;;;;;5.70;99.90;;;;;;5132077;27;19918;-85
2021/01/19 08:24:24;;;;;;;;;;;5.70;99.90;;;;;;5096843;27;20006;-85
2021/01/19 08:26:49;;;;;;;;;;;5.70;99.90;;;;;;5079979;27;19926;-87
2021/01/19 08:29:19;;;;;;;;;;;5.70;99.90;;;;;;5108932;27;19908;-86
2021/01/19 08:31:50;;;;;;;;;;;5.80;99.90;;;;;;5125940;27;20448;-87
2021/01/19 08:34:16;;;;;;;;;;;5.80;99.90;;;;;;5113162;27;19911;-86
2021/01/19 08:36:42;;;;;;;;;;;5.80;99.90;;;;;;5118861;27;19956;-87
2021/01/19 08:39:09;;;;;;;;;;;5.90;99.90;;;;;;5118961;27;19914;-87
2021/01/19 08:41:39;;;;;;;;;;;5.90;99.90;;;;;;5116443;27;19952;-87
2021/01/19 08:44:06;;;;;;;;;;;5.90;99.90;;;;;;5098409;28;20003;-87
2021/01/19 08:46:31;;;;;;;;;;;5.90;99.90;;;;;;5100550;27;19916;-86
2021/01/19 08:49:04;;;;;;;;;;;5.90;99.90;;;;;;5102632;27;19907;-87
2021/01/19 08:51:30;;;;;;;;;;;6.00;99.90;;;;;;5098682;28;20275;-87
2021/01/19 08:53:55;;;;;;;;;;;6.00;99.90;;;;;;5105870;27;20419;-87
2021/01/19 08:56:22;;;;;;;;;;;6.00;99.90;;;;;;5103766;28;19915;-86
2021/01/19 08:58:47;;;;;;;;;;;6.10;99.90;;;;;;5131862;27;19955;-87
2021/01/19 09:01:16;;;;;;;;;;;6.10;99.90;;;;;;5101959;27;19988;-87
2021/01/19 09:03:42;;;;;;;;;;;6.10;99.90;;;;;;5121207;27;20014;-86
2021/01/19 09:06:09;;;;;;;;;;;6.10;99.90;;;;;;5097668;28;19951;-86
2021/01/19 09:08:35;;;;;;;;;;;6.10;99.90;;;;;;5128976;27;19911;-86
2021/01/19 09:11:02;;;;;;;;;;;6.10;99.90;;;;;;5125167;27;20329;-85
2021/01/19 09:13:28;;;;;;;;;;;6.20;99.90;;;;;;5095909;28;19908;-86
2021/01/19 09:15:53;;;;;;;;;;;6.20;99.90;;;;;;5097358;28;19907;-86
2021/01/19 09:18:18;;;;;;;;;;;6.20;99.90;;;;;;5097387;28;19915;-86
2021/01/19 09:20:44;;;;;;;;;;;6.20;99.90;;;;;;5115478;28;19999;-85
2021/01/19 09:23:15;;;;;;;;;;;6.30;99.90;;;;;;5097202;28;20382;-85
2021/01/19 09:25:44;;;;;;;;;;;6.30;99.90;;;;;;5097356;28;19912;-85
2021/01/19 09:28:11;;;;;;;;;;;6.30;99.90;;;;;;5115265;28;19915;-85
2021/01/19 09:30:36;;;;;;;;;;;6.30;99.90;;;;;;5097143;28;19915;-87
2021/01/19 09:33:09;;;;;;;;;;;6.30;99.90;;;;;;5097278;28;20271;-85
2021/01/19 09:35:35;;;;;;;;;;;6.40;99.90;;;;;;5096976;28;19908;-85
2021/01/19 09:38:01;;;;;;;;;;;6.40;99.90;;;;;;5115161;28;20286;-86
2021/01/19 09:40:30;;;;;;;;;;;6.50;99.90;;;;;;5097057;28;19912;-86
2021/01/19 09:42:56;;;;;;;;;;;6.50;99.90;;;;;;5096748;28;20048;-86
2021/01/19 09:45:22;;;;;;;;;;;6.50;99.90;;;;;;5107473;27;19912;-87
2021/01/19 09:47:48;;;;;;;;;;;6.50;99.90;;;;;;5097280;28;19914;-86
2021/01/19 09:50:13;;;;;;;;;;;6.60;99.90;;;;;;5127960;27;19911;-82
2021/01/19 09:52:43;;;;;;;;;;;6.60;99.90;;;;;;5102452;28;19934;-81
2021/01/19 09:55:10;;;;;;;;;;;6.60;99.90;;;;;;5130947;27;19907;-83
2021/01/19 09:57:35;;;;;;;;;;;6.70;99.90;;;;;;5096456;28;19934;-84
2021/01/19 10:00:01;;;;;;;;;;;6.70;99.90;;;;;;5100480;27;19934;-83
2021/01/19 10:02:27;;;;;;;;;;;6.70;99.90;;;;;;5105475;27;19994;-84
2021/01/19 10:05:02;;;;;;;;;;;6.80;99.90;;;;;;5126729;27;20313;-83
2021/01/19 10:07:29;;;;;;;;;;;6.80;99.90;;;;;;5129706;27;20426;-84
2021/01/19 10:10:05;;;;;;;;;;;6.80;99.90;;;;;;5104230;27;19920;-84
2021/01/19 10:12:30;;;;;;;;;;;6.80;99.90;;;;;;5113826;27;19907;-86
2021/01/19 10:14:56;;;;;;;;;;;6.90;99.90;;;;;;5116662;27;19908;-84
2021/01/19 10:17:31;;;;;;;;;;;6.90;99.90;;;;;;5114764;27;19912;-83
2021/01/19 10:20:07;;;;;;;;;;;7.00;99.90;;;;;;5130113;27;20390;-84
2021/01/19 10:22:33;;;;;;;;;;;7.00;99.90;;;;;;5129979;27;19947;-83
2021/01/19 10:24:58;;;;;;;;;;;7.00;99.90;;;;;;5096254;28;20379;-83
2021/01/19 10:27:24;;;;;;;;;;;7.10;99.90;;;;;;5130509;27;19933;-83
2021/01/19 10:29:49;;;;;;;;;;;7.20;99.90;;;;;;5114399;28;19908;-84
2021/01/19 10:32:16;;;;;;;;;;;7.20;99.90;;;;;;5096456;28;20006;-83
2021/01/19 10:34:49;;;;;;;;;;;7.30;99.90;;;;;;5124298;27;20314;-84
2021/01/19 10:37:15;;;;;;;;;;;7.30;99.90;;;;;;5134191;27;19918;-84
2021/01/19 10:39:47;;;;;;;;;;;7.30;99.90;;;;;;5116188;27;20006;-83
2021/01/19 10:42:22;;;;;;;;;;;7.40;99.90;;;;;;5116157;27;19959;-83
2021/01/19 10:44:57;;;;;;;;;;;7.40;99.90;;;;;;5134601;27;19908;-82
2021/01/19 10:47:25;;;;;;;;;;;7.50;99.90;;;;;;5116129;27;20006;-82
2021/01/19 10:49:50;;;;;;;;;;;7.60;99.90;;;;;;5116352;27;19914;-83
2021/01/19 10:52:16;;;;;;;;;;;7.60;99.90;;;;;;5133999;27;19919;-84
2021/01/19 10:54:41;;;;;;;;;;;7.70;99.90;;;;;;5116054;28;19907;-83
2021/01/19 10:57:08;;;;;;;;;;;7.70;99.90;;;;;;5115837;28;19930;-82
2021/01/19 10:59:34;;;;;;;;;;;7.80;99.90;;;;;;5114014;27;19920;-83
2021/01/19 11:01:59;;;;;;;;;;;7.90;99.90;;;;;;5095288;28;19908;-84
2021/01/19 11:04:25;;;;;;;;;;;8.00;99.90;;;;;;5113702;28;19908;-84
2021/01/19 11:06:51;;;;;;;;;;;8.10;99.90;;;;;;5115061;28;19911;-83
2021/01/19 11:09:17;;;;;;;;;;;8.10;99.90;;;;;;5095271;28;19908;-83
2021/01/19 11:11:42;;;;;;;;;;;8.20;99.90;;;;;;5097213;28;19924;-83
2021/01/19 11:14:08;;;;;;;;;;;8.20;99.90;;;;;;5084689;28;19920;-83
2021/01/19 11:16:35;;;;;;;;;;;8.30;99.90;;;;;;5074873;27;19912;-81
2021/01/19 11:19:02;;;;;;;;;;;8.40;99.90;;;;;;5078871;27;19912;-82
2021/01/19 11:21:29;;;;;;;;;;;8.40;99.90;;;;;;5121316;27;20388;-82
2021/01/19 11:23:55;;;;;;;;;;;8.40;99.90;;;;;;5137264;27;19960;-82
2021/01/19 11:26:21;;;;;;;;;;;8.50;99.90;;;;;;5137536;27;19911;-82
2021/01/19 11:28:47;;;;;;;;;;;8.50;99.90;;;;;;5138091;27;19914;-82
2021/01/19 11:31:17;;;;;;;;;;;8.60;99.90;;;;;;5119622;27;19938;-81
2021/01/19 11:33:43;;;;;;;;;;;8.60;99.90;;;;;;5119677;27;19907;-81
2021/01/19 11:36:08;;;;;;;;;;;8.60;99.90;;;;;;5138062;27;19914;-81
2021/01/19 11:38:34;;;;;;;;;;;8.60;99.90;;;;;;5119743;27;20007;-80
2021/01/19 11:40:59;;;;;;;;;;;8.60;99.90;;;;;;5137987;27;19964;-81
2021/01/19 11:43:25;;;;;;;;;;;8.60;99.90;;;;;;5137771;27;19960;-81
2021/01/19 11:45:50;;;;;;;;;;;8.60;99.90;;;;;;5137879;27;19907;-81
2021/01/19 11:48:16;;;;;;;;;;;8.70;99.90;;;;;;5137815;27;19912;-80
2021/01/19 11:50:41;;;;;;;;;;;8.70;99.90;;;;;;5119401;27;20348;-81
2021/01/19 11:53:06;;;;;;;;;;;8.70;99.90;;;;;;5132528;27;19907;-80
2021/01/19 11:55:32;;;;;;;;;;;8.70;99.90;;;;;;5114618;27;19912;-78
2021/01/19 11:57:57;;;;;;;;;;;8.70;99.90;;;;;;5097803;28;19961;-80
2021/01/19 12:00:23;;;;;;;;;;;8.70;99.90;;;;;;5115856;28;19924;-79
2021/01/19 12:02:48;;;;;;;;;;;8.70;99.90;;;;;;5098320;28;20370;-79
2021/01/19 12:05:14;;;;;;;;;;;8.70;99.90;;;;;;5098208;28;19908;-80
2021/01/19 12:07:40;;;;;;;;;;;8.70;99.90;;;;;;5117232;27;19908;-79
2021/01/19 12:10:06;;;;;;;;;;;8.70;99.90;;;;;;5118444;27;20405;-80
2021/01/19 12:12:32;;;;;;;;;;;8.70;99.90;;;;;;5107865;28;20321;-80
2021/01/19 12:14:57;;;;;;;;;;;8.70;99.90;;;;;;5116302;28;19912;-79
2021/01/19 12:17:23;;;;;;;;;;;8.80;99.90;;;;;;5098028;28;19915;-80
2021/01/19 12:19:48;;;;;;;;;;;8.80;99.90;;;;;;5099595;27;19912;-80
2021/01/19 12:22:13;;;;;;;;;;;8.80;99.90;;;;;;5124824;27;20047;-80
2021/01/19 12:24:40;;;;;;;;;;;8.80;99.90;;;;;;5126750;27;20382;-81
2021/01/19 12:27:05;;;;;;;;;;;8.80;99.90;;;;;;5100044;28;19960;-80
2021/01/19 12:29:31;;;;;;;;;;;8.80;99.90;;;;;;5115787;28;20002;-80
2021/01/19 12:32:01;;;;;;;;;;;8.80;99.90;;;;;;5115014;27;19911;-80
2021/01/19 12:34:26;;;;;;;;;;;8.80;99.90;;;;;;5135356;27;19915;-81
2021/01/19 12:36:52;;;;;;;;;;;8.80;99.90;;;;;;5115956;28;19916;-80
2021/01/19 12:39:17;;;;;;;;;;;8.80;99.90;;;;;;5121090;27;19911;-80
2021/01/19 12:41:43;;;;;;;;;;;8.80;99.90;;;;;;5107136;27;19937;-79
2021/01/19 12:44:08;;;;;;;;;;;8.80;99.90;;;;;;5102747;28;19937;-81
2021/01/19 12:46:34;;;;;;;;;;;8.90;99.90;;;;;;5097673;28;19915;-82
2021/01/19 12:49:00;;;;;;;;;;;8.90;99.90;;;;;;5107050;27;19969;-80
2021/01/19 12:51:28;;;;;;;;;;;8.90;99.90;;;;;;5136458;27;19914;-79
2021/01/19 12:53:53;;;;;;;;;;;8.90;99.90;;;;;;5135821;27;19963;-80
2021/01/19 12:56:19;;;;;;;;;;;8.90;99.90;;;;;;5136187;27;20393;-80
2021/01/19 12:58:45;;;;;;;;;;;9.00;99.90;;;;;;5135947;27;19919;-79
2021/01/19 13:01:11;;;;;;;;;;;9.00;99.90;;;;;;5134417;27;19956;-81
2021/01/19 13:03:38;;;;;;;;;;;9.10;99.90;;;;;;5096909;28;19919;-80
2021/01/19 13:06:04;;;;;;;;;;;9.10;99.90;;;;;;5100055;28;19911;-80
2021/01/19 13:08:30;;;;;;;;;;;9.10;99.90;;;;;;5115389;28;19993;-80
2021/01/19 13:10:55;;;;;;;;;;;9.20;99.90;;;;;;5125292;27;19911;-79
2021/01/19 13:13:21;;;;;;;;;;;9.20;99.90;;;;;;5120036;27;19911;-80
2021/01/19 13:15:47;;;;;;;;;;;9.30;99.90;;;;;;5115352;28;20389;-79
2021/01/19 13:18:15;;;;;;;;;;;9.30;99.90;;;;;;5115300;28;20002;-79
2021/01/19 13:20:41;;;;;;;;;;;9.40;99.90;;;;;;5115215;28;19922;-78
2021/01/19 13:23:06;;;;;;;;;;;9.40;99.90;;;;;;5104236;27;19912;-78
2021/01/19 13:25:32;;;;;;;;;;;9.50;99.90;;;;;;5124253;27;19912;-78
2021/01/19 13:27:57;;;;;;;;;;;9.50;99.90;;;;;;5124799;27;19912;-80
2021/01/19 13:30:24;;;;;;;;;;;9.50;99.90;;;;;;5107386;27;20388;-79
2021/01/19 13:32:50;;;;;;;;;;;9.50;99.90;;;;;;5123725;27;19931;-79
2021/01/19 13:35:15;;;;;;;;;;;9.60;99.90;;;;;;5124605;27;20351;-79
2021/01/19 13:37:42;;;;;;;;;;;9.60;99.90;;;;;;5125336;27;19912;-79
2021/01/19 13:40:07;;;;;;;;;;;9.60;99.90;;;;;;5122376;27;19998;-80
2021/01/19 13:42:33;;;;;;;;;;;9.60;99.90;;;;;;5124895;27;19998;-79
2021/01/19 13:44:58;;;;;;;;;;;9.70;99.90;;;;;;5103026;27;20422;-80
2021/01/19 13:47:24;;;;;;;;;;;9.70;99.90;;;;;;5125444;27;19908;-80
2021/01/19 13:49:50;;;;;;;;;;;9.70;99.90;;;;;;5123697;27;19907;-80
2021/01/19 13:52:15;;;;;;;;;;;9.70;99.90;;;;;;5105833;27;19956;-80
2021/01/19 13:54:41;;;;;;;;;;;9.80;99.90;;;;;;5105324;27;19919;-81
2021/01/19 13:57:06;;;;;;;;;;;9.90;99.90;;;;;;5116951;27;20381;-80
2021/01/19 13:59:32;;;;;;;;;;;9.90;99.90;;;;;;5114041;28;19982;-80
2021/01/19 14:01:57;;;;;;;;;;;9.90;99.90;;;;;;5096357;28;20480;-82
2021/01/19 14:04:23;;;;;;;;;;;10.00;99.90;;;;;;5114074;28;19912;-81
2021/01/19 14:06:48;;;;;;;;;;;10.00;99.90;;;;;;5114298;28;20422;-81
2021/01/19 14:09:14;;;;;;;;;;;10.00;99.90;;;;;;5114366;28;19911;-81
2021/01/19 14:11:40;;;;;;;;;;;10.00;99.90;;;;;;5095819;28;19956;-81
2021/01/19 14:14:09;;;;;;;;;;;10.00;99.90;;;;;;5123425;27;20386;-80
2021/01/19 14:16:34;;;;;;;;;;;10.00;99.90;;;;;;5096290;28;19908;-81
2021/01/19 14:19:01;;;;;;;;;;;10.00;99.90;;;;;;5126794;27;19915;-81
2021/01/19 14:21:26;;;;;;;;;;;9.90;99.90;;;;;;5127676;27;19911;-80
2021/01/19 14:23:55;;;;;;;;;;;9.90;99.90;;;;;;5114167;27;20283;-80
2021/01/19 14:26:25;;;;;;;;;;;9.90;99.90;;;;;;5113105;28;20002;-79
2021/01/19 14:28:50;;;;;;;;;;;9.90;99.90;;;;;;5095438;28;19957;-80
2021/01/19 14:31:16;;;;;;;;;;;9.90;99.90;;;;;;5113333;28;19939;-79